Currently 38°F in Beaumont, California, USA
38°F
39°F / 38°F
1 mph NW
0.00"
Sunday, January 22, 2017 4:09 AM PST

Beaumont, California Weather Summary
Last 36 Hours

Temperature Winds Hourly Humidity Dewpoint
Time Report Norm Report Norm Max Gusts Precip. Rpt. Norm Rpt. Norm Pressure
1Sun 04:09 AM  38.5°F  51°F  1 mph NW  4 mph  2 mph  0.00"  92%  46%  36°F  30°F  30.14"
Sun 04:00 AM  38.7°F  51°F  2 mph NE  4 mph  3 mph  0.00"  92%  46%  36°F  30°F  30.12"
Sun 03:00 AM  38.8°F  51°F  calm  3 mph  3 mph  0.00"  90%  46%  36°F  30°F  30.11"
Sun 02:00 AM  38.5°F  52°F  1 mph S  4 mph  5 mph  0.00"  94%  46%  37°F  30°F  30.12"
3Sun 01:52 AM  38.5°F  52°F  1 mph S  4 mph  3 mph  ----  95%  46%  37°F  31°F  30.12"
Sun 01:00 AM  38.8°F  52°F  1 mph SE  4 mph  3 mph  0.00"  95%  46%  37°F  31°F  30.13"
2Sun 12:00 AM  38.8°F  53°F  calm  4 mph  3 mph  0.00"  94%  45%  37°F  31°F  30.14"
Sat 11:00 PM  38.7°F  52°F  calm  4 mph  3 mph  0.00"  94%  46%  37°F  32°F  30.14"
Sat 10:00 PM  38.7°F  53°F  calm  4 mph  6 mph  0.00"  94%  46%  37°F  32°F  30.11"
Sat 09:00 PM  39.4°F  53°F  1 mph SW  5 mph  8 mph  0.00"  93%  46%  37°F  32°F  30.13"
Sat 08:00 PM  39.6°F  54°F  calm  4 mph  5 mph  0.00"  92%  46%  37°F  32°F  30.09"
Sat 07:00 PM  39.4°F  54°F  1 mph W  4 mph  6 mph  0.00"  87%  44%  36°F  32°F  30.06"
Sat 06:00 PM  41.4°F  55°F  2 mph W  4 mph  8 mph  0.00"  72%  44%  33°F  32°F  30.03"
Sat 05:00 PM  42.1°F  57°F  4 mph W  4 mph  9 mph  0.00"  71%  42%  33°F  33°F  30.01"
Sat 04:00 PM  43.5°F  59°F  2 mph SW  6 mph  10 mph  0.00"  68%  39%  33°F  33°F  30.00"
Sat 03:00 PM  43.5°F  61°F  3 mph SW  7 mph  10 mph  0.00"  68%  37%  33°F  34°F  29.99"
Sat 02:00 PM  44.2°F  61°F  3 mph S  7 mph  8 mph  0.00"  71%  37%  35°F  34°F  29.98"
Sat 01:00 PM  41.2°F  61°F  3 mph SW  8 mph  12 mph  0.00"  75%  37%  34°F  34°F  29.97"
Sat 12:00 PM  41.4°F  60°F  3 mph SW  8 mph  12 mph  0.00"  76%  38%  34°F  33°F  29.95"
Sat 11:00 AM  40.8°F  60°F  4 mph SW  7 mph  13 mph  0.00"  74%  38%  33°F  33°F  29.94"
Sat 10:00 AM  38.5°F  58°F  3 mph NW  6 mph  12 mph  0.00"  85%  40%  34°F  33°F  29.91"
Sat 09:00 AM  37.9°F  56°F  4 mph SW  5 mph  12 mph  0.00"  87%  41%  34°F  32°F  29.88"
Sat 08:00 AM  36.9°F  54°F  2 mph SW  3 mph  12 mph  0.00"  89%  43%  34°F  31°F  29.81"
Sat 07:00 AM  35.2°F  51°F  5 mph W  3 mph  10 mph  0.00"  92%  44%  33°F  29°F  29.78"
Sat 06:00 AM  35.1°F  51°F  2 mph W  5 mph  15 mph  0.00"  93%  44%  33°F  29°F  29.73"
Sat 05:00 AM  35.2°F  51°F  4 mph S  4 mph  18 mph  0.00"  94%  44%  34°F  29°F  29.69"
Sat 04:00 AM  35.4°F  51°F  9 mph SW  4 mph  20 mph  0.00"  92%  44%  33°F  29°F  29.65"
Sat 03:00 AM  35.8°F  51°F  13 mph SW  4 mph  22 mph  0.00"  95%  44%  34°F  29°F  29.62"
Sat 02:00 AM  36.1°F  52°F  8 mph W  4 mph  20 mph  0.00"  94%  44%  35°F  30°F  29.61"
Sat 01:00 AM  36.9°F  52°F  13 mph SW  4 mph  20 mph  0.00"  96%  44%  36°F  30°F  29.57"
Sat 12:00 AM  37.4°F  52°F  4 mph SW  4 mph  20 mph  0.00"  96%  44%  36°F  30°F  29.56"
Fri 11:00 PM  37.9°F  52°F  7 mph SW  4 mph  23 mph  0.13"  97%  45%  37°F  31°F  29.55"
Fri 10:00 PM  38.1°F  52°F  10 mph SW  4 mph  17 mph  0.10"  97%  45%  37°F  31°F  29.53"
Fri 09:00 PM  38.3°F  53°F  7 mph SW  4 mph  20 mph  0.01"  96%  44%  37°F  31°F  29.53"
Fri 08:00 PM  38.7°F  53°F  7 mph SW  4 mph  20 mph  0.00"  95%  44%  37°F  31°F  29.52"
Fri 07:00 PM  39.6°F  54°F  5 mph SW  4 mph  20 mph  0.00"  94%  43%  38°F  31°F  29.50"
Fri 06:00 PM  40.3°F  55°F  6 mph W  4 mph  20 mph  0.02"  96%  43%  39°F  31°F  29.47"
Fri 05:00 PM  41.4°F  57°F  9 mph SW  4 mph  20 mph  0.00"  92%  41%  39°F  32°F  29.46"

  1. Current weather data. No green row appears if the current weather data is also the high or low for the current day.
  2. High temperature for the current day.
  3. Low temperature for the current day.

The Beaumont, California weather pages are a service of WeatherCurrents. Cherry Valley is located in northern Riverside County, California, a community of the northern part of Beaumont, along the Interstate 10 highway, in the San Gorgonio pass area, between the communities of Calimesa, Banning.
Copyright ©Sun Jan 22 04:10:25 PST 2017  WeatherCurrents. All rights reserved. - Submit questions and comments - Privacy Policy

This page automatically refreshes every 10 minutes.